createdAt,value
2022-12-11T00:00:17.138Z,0
2022-12-11T00:01:17.378Z,0
2022-12-11T00:02:17.968Z,0
2022-12-11T00:03:23.336Z,0
2022-12-11T00:04:17.597Z,0
2022-12-11T00:05:18.062Z,0
2022-12-11T00:06:17.267Z,0
2022-12-11T00:07:17.247Z,0
2022-12-11T00:08:17.536Z,0
2022-12-11T00:09:17.215Z,0
2022-12-11T00:10:16.923Z,0
2022-12-11T00:11:17.160Z,0
2022-12-11T00:12:17.389Z,0
2022-12-11T00:13:17.370Z,0
2022-12-11T00:14:16.843Z,0
2022-12-11T00:15:17.696Z,0
2022-12-11T00:16:17.117Z,0
2022-12-11T00:17:16.955Z,0
2022-12-11T00:18:17.374Z,0
2022-12-11T00:19:17.008Z,0
2022-12-11T00:20:17.001Z,0
2022-12-11T00:21:16.705Z,0
2022-12-11T00:22:17.175Z,0
2022-12-11T00:23:16.904Z,0
2022-12-11T00:24:16.893Z,0
2022-12-11T00:25:17.819Z,0
2022-12-11T00:26:17.100Z,0
2022-12-11T00:27:16.557Z,0
2022-12-11T00:28:16.550Z,0
2022-12-11T00:29:17.101Z,0
2022-12-11T00:30:17.183Z,0
2022-12-11T00:31:16.843Z,0
2022-12-11T00:32:16.672Z,0
2022-12-11T00:33:16.693Z,0
2022-12-11T00:34:17.014Z,0
2022-12-11T00:35:17.451Z,0
2022-12-11T00:36:16.677Z,0
2022-12-11T00:37:17.117Z,0
2022-12-11T00:38:16.853Z,0
2022-12-11T00:39:16.317Z,0
2022-12-11T00:40:16.823Z,0
2022-12-11T00:41:16.273Z,0
2022-12-11T00:42:16.515Z,0
2022-12-11T00:43:16.503Z,0
2022-12-11T00:44:16.468Z,0
2022-12-11T00:45:17.573Z,0
2022-12-11T00:46:16.775Z,0
2022-12-11T00:47:15.889Z,0
2022-12-11T00:48:16.649Z,0
2022-12-11T00:49:16.392Z,0
2022-12-11T00:50:16.677Z,0
2022-12-11T00:51:16.077Z,0
2022-12-11T00:52:16.323Z,0
2022-12-11T00:53:16.013Z,0
2022-12-11T00:54:16.510Z,0
2022-12-11T00:55:16.822Z,0
2022-12-11T00:56:16.209Z,0
2022-12-11T00:57:16.452Z,0
2022-12-11T00:58:15.668Z,0
2022-12-11T00:59:16.162Z,0
2022-12-11T01:00:15.878Z,0
2022-12-11T01:01:16.705Z,0
2022-12-11T01:02:16.456Z,0
2022-12-11T01:03:16.019Z,0
2022-12-11T01:04:16.050Z,0
2022-12-11T01:05:16.686Z,0
2022-12-11T01:06:16.142Z,0
2022-12-11T01:07:16.236Z,0
2022-12-11T01:08:16.224Z,0
2022-12-11T01:09:15.675Z,0
2022-12-11T01:10:16.143Z,0
2022-12-11T01:11:15.644Z,0
2022-12-11T01:12:16.127Z,0
2022-12-11T01:13:15.843Z,0
2022-12-11T01:14:15.810Z,0
2022-12-11T01:15:16.864Z,0
2022-12-11T01:16:16.044Z,0
2022-12-11T01:17:15.768Z,0
2022-12-11T01:18:15.470Z,0
2022-12-11T01:19:15.717Z,0
2022-12-11T01:20:15.973Z,0
2022-12-11T01:21:15.667Z,0
2022-12-11T01:22:15.715Z,0
2022-12-11T01:23:15.683Z,0
2022-12-11T01:24:15.638Z,0
2022-12-11T01:25:16.420Z,0
2022-12-11T01:26:15.095Z,0
2022-12-11T01:27:15.541Z,0
2022-12-11T01:28:15.532Z,0
2022-12-11T01:29:15.527Z,0
2022-12-11T01:30:15.740Z,0
2022-12-11T01:31:15.643Z,0
2022-12-11T01:32:15.187Z,0
2022-12-11T01:33:15.419Z,0
2022-12-11T01:34:47.150Z,0
2022-12-11T01:35:16.259Z,0
2022-12-11T01:36:15.362Z,0
2022-12-11T01:37:15.322Z,0
2022-12-11T01:38:15.644Z,0
2022-12-11T01:39:15.034Z,0
2022-12-11T01:40:15.262Z,0
2022-12-11T01:41:20.305Z,0
2022-12-11T01:42:15.245Z,0
2022-12-11T01:43:14.694Z,0
2022-12-11T01:44:15.178Z,0
2022-12-11T01:45:16.133Z,0
2022-12-11T01:46:15.317Z,0
2022-12-11T01:47:15.121Z,0
2022-12-11T01:48:14.838Z,0
2022-12-11T01:49:14.827Z,0
2022-12-11T01:50:14.790Z,0
2022-12-11T01:51:14.773Z,0
2022-12-11T01:52:14.759Z,0
2022-12-11T01:53:14.984Z,0
2022-12-11T01:54:15.285Z,0
2022-12-11T01:55:15.688Z,0
2022-12-11T01:56:15.170Z,0
2022-12-11T01:57:15.163Z,0
2022-12-11T01:58:14.920Z,0
2022-12-11T01:59:15.103Z,0
2022-12-11T02:00:15.105Z,0
2022-12-11T02:01:15.038Z,0
2022-12-11T02:02:14.744Z,0
2022-12-11T02:03:14.764Z,0
2022-12-11T02:04:14.492Z,0
2022-12-11T02:05:15.831Z,0
2022-12-11T02:06:14.702Z,0
2022-12-11T02:07:14.676Z,0
2022-12-11T02:08:14.993Z,0
2022-12-11T02:09:14.894Z,0
2022-12-11T02:10:14.956Z,0
2022-12-11T02:11:14.330Z,0
2022-12-11T02:12:14.573Z,0
2022-12-11T02:13:14.813Z,0
2022-12-11T02:14:14.565Z,0
2022-12-11T02:15:15.457Z,0
2022-12-11T02:16:15.035Z,0
2022-12-11T02:17:14.718Z,0
2022-12-11T02:18:14.720Z,0
2022-12-11T02:19:14.670Z,0
2022-12-11T02:20:14.644Z,0
2022-12-11T02:21:14.634Z,0
2022-12-11T02:22:14.372Z,0
2022-12-11T02:23:14.336Z,0
2022-12-11T02:24:14.063Z,0
2022-12-11T02:25:15.477Z,0
2022-12-11T02:26:14.623Z,0
2022-12-11T02:27:14.247Z,0
2022-12-11T02:28:13.982Z,0
2022-12-11T02:29:13.974Z,0
2022-12-11T02:30:14.215Z,0
2022-12-11T02:31:14.408Z,0
2022-12-11T02:32:14.148Z,0
2022-12-11T02:33:13.607Z,0
2022-12-11T02:34:14.111Z,0
2022-12-11T02:35:14.715Z,0
2022-12-11T02:36:14.054Z,0
2022-12-11T02:37:14.034Z,0
2022-12-11T02:38:14.004Z,0
2022-12-11T02:39:13.985Z,0
2022-12-11T02:40:13.698Z,0
2022-12-11T02:41:13.980Z,0
2022-12-11T02:42:14.246Z,0
2022-12-11T02:43:13.891Z,0
2022-12-11T02:44:13.644Z,0
2022-12-11T02:45:14.786Z,0
2022-12-11T02:46:14.472Z,0
2022-12-11T02:47:13.555Z,0
2022-12-11T02:48:13.789Z,0
2022-12-11T02:49:13.268Z,0
2022-12-11T02:50:13.496Z,0
2022-12-11T02:51:13.971Z,0
2022-12-11T02:52:13.703Z,0
2022-12-11T02:53:13.424Z,0
2022-12-11T02:54:13.913Z,0
2022-12-11T02:55:14.336Z,0
2022-12-11T02:56:13.405Z,0
2022-12-11T02:57:13.602Z,0
2022-12-11T02:58:13.879Z,0
2022-12-11T02:59:13.303Z,0
2022-12-11T03:00:13.780Z,0
2022-12-11T03:01:13.929Z,0
2022-12-11T03:02:13.580Z,0
2022-12-11T03:03:13.730Z,0
2022-12-11T03:04:13.439Z,0
2022-12-11T03:05:14.689Z,0
2022-12-11T03:06:13.397Z,0
2022-12-11T03:07:13.385Z,0
2022-12-11T03:08:13.919Z,0
2022-12-11T03:09:13.335Z,0
2022-12-11T03:10:13.575Z,0
2022-12-11T03:11:13.048Z,0
2022-12-11T03:12:13.279Z,0
2022-12-11T03:13:13.245Z,0
2022-12-11T03:14:13.566Z,0
2022-12-11T03:15:14.443Z,0
2022-12-11T03:16:13.316Z,0
2022-12-11T03:17:13.162Z,0
2022-12-11T03:18:13.439Z,0
2022-12-11T03:19:12.869Z,0
2022-12-11T03:20:12.878Z,0
2022-12-11T03:21:12.828Z,0
2022-12-11T03:22:13.306Z,0
2022-12-11T03:23:12.775Z,0
2022-12-11T03:24:13.002Z,0
2022-12-11T03:25:13.981Z,0
2022-12-11T03:26:12.977Z,0
2022-12-11T03:27:18.311Z,0
2022-12-11T03:28:12.413Z,0
2022-12-11T03:29:12.653Z,0
2022-12-11T03:30:12.963Z,0
2022-12-11T03:31:12.584Z,0
2022-12-11T03:32:12.836Z,0
2022-12-11T03:49:47.407Z,0
2022-12-11T03:50:47.016Z,0
2022-12-11T03:51:46.994Z,0
2022-12-11T03:52:52.895Z,0
2022-12-11T03:53:46.992Z,0
2022-12-11T03:54:46.682Z,0
2022-12-11T03:55:46.396Z,0
2022-12-11T03:56:46.639Z,0
2022-12-11T03:57:46.865Z,0
2022-12-11T03:58:46.329Z,0
2022-12-11T03:59:46.842Z,0
2022-12-11T04:00:46.793Z,0
2022-12-11T04:01:47.454Z,0
2022-12-11T04:02:46.752Z,0
2022-12-11T04:03:46.999Z,0
2022-12-11T04:04:47.058Z,0
2022-12-11T04:05:47.045Z,0
2022-12-11T04:06:46.929Z,0
2022-12-11T04:07:46.860Z,0
2022-12-11T04:08:46.350Z,0
2022-12-11T04:09:46.596Z,0
2022-12-11T04:10:46.587Z,0
2022-12-11T04:11:46.612Z,0
2022-12-11T04:12:46.288Z,0
2022-12-11T04:13:46.268Z,0
2022-12-11T04:14:46.492Z,0
2022-12-11T04:15:46.801Z,0
2022-12-11T04:16:46.787Z,0
2022-12-11T04:17:46.683Z,0
2022-12-11T04:18:46.138Z,0
2022-12-11T04:19:46.379Z,0
2022-12-11T04:20:46.363Z,0
2022-12-11T04:21:47.322Z,0
2022-12-11T04:22:46.308Z,0
2022-12-11T04:23:46.534Z,0
2022-12-11T04:24:45.751Z,0
2022-12-11T04:25:46.262Z,0
2022-12-11T04:26:46.475Z,0
2022-12-11T04:27:46.195Z,0
2022-12-11T04:28:46.230Z,0
2022-12-11T04:29:46.454Z,0
2022-12-11T04:30:46.633Z,0
2022-12-11T04:31:46.124Z,0
2022-12-11T04:32:46.091Z,0
2022-12-11T04:33:46.820Z,0
2022-12-11T04:34:45.542Z,0
2022-12-11T04:35:45.767Z,0
2022-12-11T04:36:46.250Z,0
2022-12-11T04:37:46.343Z,0
2022-12-11T04:38:45.953Z,0
2022-12-11T04:39:46.197Z,0
2022-12-11T04:40:45.913Z,0
2022-12-11T04:41:45.638Z,0
2022-12-11T04:42:45.878Z,0
2022-12-11T04:43:45.841Z,0
2022-12-11T04:44:46.079Z,0
2022-12-11T04:45:45.553Z,0
2022-12-11T04:46:45.761Z,0
2022-12-11T04:47:45.508Z,0
2022-12-11T04:48:45.736Z,0
2022-12-11T04:49:45.490Z,0
2022-12-11T04:50:45.699Z,0
2022-12-11T04:51:45.677Z,0
2022-12-11T04:52:45.646Z,0
2022-12-11T04:53:45.972Z,0
2022-12-11T04:54:45.346Z,0
2022-12-11T04:55:45.331Z,0
2022-12-11T04:56:45.302Z,0
2022-12-11T04:57:45.536Z,0
2022-12-11T04:58:45.779Z,0
2022-12-11T04:59:45.509Z,0
2022-12-11T05:00:45.490Z,0
2022-12-11T05:01:45.475Z,0
2022-12-11T05:02:45.456Z,0
2022-12-11T05:03:45.663Z,0
2022-12-11T05:04:45.377Z,0
2022-12-11T05:05:45.110Z,0
2022-12-11T05:06:45.087Z,0
2022-12-11T05:07:45.289Z,0
2022-12-11T05:08:45.297Z,0
2022-12-11T05:09:45.628Z,0
2022-12-11T05:10:52.326Z,0
2022-12-11T05:11:45.483Z,0
2022-12-11T05:12:45.881Z,0
2022-12-11T05:13:45.857Z,0
2022-12-11T05:14:45.857Z,0
2022-12-11T05:15:46.364Z,0
2022-12-11T05:16:46.048Z,0
2022-12-11T05:17:46.042Z,0
2022-12-11T05:18:46.026Z,0
2022-12-11T05:19:45.991Z,0
2022-12-11T05:20:45.702Z,0
2022-12-11T05:21:45.430Z,0
2022-12-11T05:22:45.669Z,0
2022-12-11T05:23:45.640Z,0
2022-12-11T05:24:45.873Z,0
2022-12-11T05:25:45.946Z,0
2022-12-11T05:26:45.332Z,0
2022-12-11T05:27:45.820Z,0
2022-12-11T05:28:45.024Z,0
2022-12-11T05:29:45.519Z,0
2022-12-11T05:30:45.240Z,0
2022-12-11T05:31:45.696Z,0
2022-12-11T05:32:45.452Z,0
2022-12-11T05:33:44.915Z,0
2022-12-11T05:34:45.146Z,0
2022-12-11T05:35:45.650Z,0
2022-12-11T05:36:45.115Z,0
2022-12-11T05:37:45.332Z,0
2022-12-11T05:38:44.798Z,0
2022-12-11T05:39:45.306Z,0
2022-12-11T05:40:44.767Z,0
2022-12-11T05:41:45.707Z,0
2022-12-11T05:42:45.234Z,0
2022-12-11T05:43:45.464Z,0
2022-12-11T05:44:44.934Z,0
2022-12-11T05:45:44.910Z,0
2022-12-11T05:46:45.556Z,0
2022-12-11T05:47:44.869Z,0
2022-12-11T05:48:45.115Z,0
2022-12-11T05:49:44.815Z,0
2022-12-11T05:50:44.790Z,0
2022-12-11T05:51:44.774Z,0
2022-12-11T05:52:44.751Z,0
2022-12-11T05:53:45.010Z,0
2022-12-11T05:54:44.968Z,0
2022-12-11T05:55:44.687Z,0
2022-12-11T05:56:44.928Z,0
2022-12-11T05:57:45.253Z,0
2022-12-11T05:58:44.878Z,0
2022-12-11T05:59:45.124Z,0
2022-12-11T06:00:44.321Z,0
2022-12-11T06:01:46.176Z,0
2022-12-11T06:02:45.599Z,0
2022-12-11T06:03:45.044Z,0
2022-12-11T06:04:44.778Z,0
2022-12-11T06:05:44.466Z,0
2022-12-11T06:06:44.984Z,0
2022-12-11T06:07:44.702Z,0
2022-12-11T06:08:44.403Z,0
2022-12-11T06:09:44.898Z,0
2022-12-11T06:10:44.624Z,0
2022-12-11T06:11:44.667Z,0
2022-12-11T06:12:44.329Z,0
2022-12-11T06:13:44.903Z,0
2022-12-11T06:14:44.807Z,0
2022-12-11T06:15:44.513Z,0
2022-12-11T06:16:44.601Z,0
2022-12-11T06:17:44.476Z,0
2022-12-11T06:18:44.441Z,0
2022-12-11T06:19:44.164Z,0
2022-12-11T06:20:44.421Z,0
2022-12-11T06:21:44.382Z,0
2022-12-11T06:22:44.361Z,0
2022-12-11T06:23:44.339Z,0
2022-12-11T06:24:44.584Z,0
2022-12-11T06:25:44.036Z,0
2022-12-11T06:26:44.267Z,0
2022-12-11T06:27:44.499Z,0
2022-12-11T06:28:44.478Z,0
2022-12-11T06:29:44.559Z,0
2022-12-11T06:30:45.364Z,0
2022-12-11T06:31:44.737Z,0
2022-12-11T06:32:44.405Z,0
2022-12-11T06:33:44.377Z,4
2022-12-11T06:34:43.579Z,0
2022-12-11T06:35:49.150Z,0
2022-12-11T06:36:44.052Z,4
2022-12-11T06:37:44.031Z,4
2022-12-11T06:38:44.041Z,0
2022-12-11T06:39:43.726Z,4
2022-12-11T06:40:43.968Z,4
2022-12-11T06:41:43.944Z,4
2022-12-11T06:42:43.672Z,8
2022-12-11T06:43:44.161Z,8
2022-12-11T06:44:43.364Z,8
2022-12-11T06:45:44.456Z,12
2022-12-11T06:46:43.590Z,12
2022-12-11T06:47:43.301Z,12
2022-12-11T06:48:44.056Z,12
2022-12-11T06:49:44.037Z,16
2022-12-11T06:50:44.021Z,20
2022-12-11T06:51:43.975Z,20
2022-12-11T06:52:43.192Z,24
2022-12-11T06:53:43.423Z,28
2022-12-11T06:54:43.660Z,28
2022-12-11T06:55:43.147Z,32
2022-12-11T06:56:43.365Z,36
2022-12-11T06:57:43.598Z,36
2022-12-11T06:58:43.576Z,40
2022-12-11T06:59:43.313Z,44
2022-12-11T07:00:43.522Z,48
2022-12-11T07:01:43.881Z,52
2022-12-11T07:02:43.792Z,52
2022-12-11T07:03:42.943Z,56
2022-12-11T07:04:43.700Z,60
2022-12-11T07:05:43.160Z,60
2022-12-11T07:06:43.407Z,64
2022-12-11T07:07:43.349Z,68
2022-12-11T07:08:43.090Z,72
2022-12-11T07:09:43.343Z,76
2022-12-11T07:10:43.050Z,80
2022-12-11T07:11:43.536Z,84
2022-12-11T07:12:43.285Z,92
2022-12-11T07:13:43.499Z,96
2022-12-11T07:14:43.210Z,104
2022-12-11T07:15:47.527Z,108
2022-12-11T07:16:43.167Z,116
2022-12-11T07:17:43.525Z,120
2022-12-11T07:18:43.394Z,124
2022-12-11T07:19:42.858Z,132
2022-12-11T07:20:43.090Z,140
2022-12-11T07:21:42.554Z,152
2022-12-11T07:22:50.808Z,168
2022-12-11T07:23:42.556Z,180
2022-12-11T07:24:43.001Z,200
2022-12-11T07:25:43.243Z,208
2022-12-11T07:26:42.954Z,220
2022-12-11T07:27:43.187Z,228
2022-12-11T07:28:42.929Z,240
2022-12-11T07:29:42.642Z,248
2022-12-11T07:30:42.864Z,248
2022-12-11T07:31:43.152Z,244
2022-12-11T07:32:43.168Z,240
2022-12-11T07:33:43.166Z,240
2022-12-11T07:34:45.007Z,244
2022-12-11T07:35:43.013Z,248
2022-12-11T07:36:42.485Z,256
2022-12-11T07:37:42.463Z,268
2022-12-11T07:38:42.964Z,284
2022-12-11T07:39:42.680Z,296
2022-12-11T07:40:42.674Z,304
2022-12-11T07:41:42.634Z,304
2022-12-11T07:42:49.219Z,304
2022-12-11T07:43:42.599Z,308
2022-12-11T07:44:42.559Z,316
2022-12-11T07:45:42.446Z,332
2022-12-11T07:46:42.264Z,348
2022-12-11T07:47:42.242Z,368
2022-12-11T07:48:42.497Z,380
2022-12-11T07:49:42.798Z,392
2022-12-11T07:50:46.627Z,424
2022-12-11T07:51:42.463Z,460
2022-12-11T07:52:42.398Z,480
2022-12-11T07:53:42.638Z,492
2022-12-11T07:54:42.089Z,492
2022-12-11T07:55:41.808Z,476
2022-12-11T07:56:49.845Z,496
2022-12-11T07:57:42.535Z,512
2022-12-11T07:58:42.509Z,544
2022-12-11T07:59:41.995Z,564
2022-12-11T08:00:42.224Z,564
2022-12-11T08:01:42.397Z,564
2022-12-11T08:02:44.803Z,596
2022-12-11T08:03:42.356Z,648
2022-12-11T08:04:42.396Z,680
2022-12-11T08:05:42.476Z,680
2022-12-11T08:06:42.339Z,676
2022-12-11T08:07:41.807Z,668
2022-12-11T08:08:42.047Z,644
2022-12-11T08:09:42.031Z,652
2022-12-11T08:10:41.997Z,676
2022-12-11T08:11:41.977Z,720
2022-12-11T08:12:41.688Z,772
2022-12-11T08:13:41.943Z,780
2022-12-11T08:14:42.159Z,836
2022-12-11T08:15:42.137Z,916
2022-12-11T08:16:41.822Z,904
2022-12-11T08:17:47.200Z,872
2022-12-11T08:18:42.080Z,840
2022-12-11T08:19:41.796Z,812
2022-12-11T08:20:41.781Z,812
2022-12-11T08:21:42.117Z,856
2022-12-11T08:22:41.221Z,912
2022-12-11T08:23:41.960Z,1008
2022-12-11T08:24:41.940Z,1080
2022-12-11T08:25:41.404Z,1116
2022-12-11T08:26:41.659Z,1092
2022-12-11T08:27:41.366Z,1132
2022-12-11T08:28:41.594Z,1188
2022-12-11T08:29:41.843Z,1180
2022-12-11T08:30:41.859Z,1084
2022-12-11T08:31:41.534Z,984
2022-12-11T08:32:41.317Z,940
2022-12-11T08:33:41.753Z,972
2022-12-11T08:34:41.219Z,1056
2022-12-11T08:35:41.205Z,1024
2022-12-11T08:36:41.444Z,992
2022-12-11T08:37:41.773Z,948
2022-12-11T08:38:41.147Z,956
2022-12-11T08:39:41.106Z,1012
2022-12-11T08:40:41.351Z,1036
2022-12-11T08:41:41.321Z,1060
2022-12-11T08:42:41.299Z,1036
2022-12-11T08:43:41.271Z,1020
2022-12-11T08:44:41.274Z,1004
2022-12-11T08:45:41.306Z,1008
2022-12-11T08:46:41.142Z,996
2022-12-11T08:47:40.930Z,960
2022-12-11T08:48:40.666Z,964
2022-12-11T08:49:41.789Z,1004
2022-12-11T08:50:41.164Z,1040
2022-12-11T08:51:40.853Z,1132
2022-12-11T08:52:41.331Z,1236
2022-12-11T08:53:41.469Z,1352
2022-12-11T08:54:41.040Z,1456
2022-12-11T08:55:41.272Z,1524
2022-12-11T08:56:40.982Z,1548
2022-12-11T08:57:40.966Z,1624
2022-12-11T08:58:40.956Z,1788
2022-12-11T08:59:40.669Z,2048
2022-12-11T09:00:40.657Z,2140
2022-12-11T09:01:41.018Z,2072
2022-12-11T09:02:41.078Z,1904
2022-12-11T09:03:40.859Z,1748
2022-12-11T09:04:40.568Z,1668
2022-12-11T09:05:40.802Z,1704
2022-12-11T09:06:40.800Z,1720
2022-12-11T09:07:40.756Z,1684
2022-12-11T09:08:40.736Z,1732
2022-12-11T09:09:41.231Z,1820
2022-12-11T09:10:40.861Z,1832
2022-12-11T09:11:40.641Z,1928
2022-12-11T09:12:40.817Z,2052
2022-12-11T09:13:40.797Z,2116
2022-12-11T09:14:40.802Z,2156
2022-12-11T09:15:41.034Z,2180
2022-12-11T09:16:40.965Z,2236
2022-12-11T09:17:40.969Z,2344
2022-12-11T09:18:40.684Z,2300
2022-12-11T09:19:40.937Z,2272
2022-12-11T09:20:40.899Z,2264
2022-12-11T09:21:40.455Z,2300
2022-12-11T09:22:40.605Z,2252
2022-12-11T09:23:40.331Z,2180
2022-12-11T09:24:40.814Z,2180
2022-12-11T09:25:40.916Z,2112
2022-12-11T09:26:40.523Z,2020
2022-12-11T09:27:40.493Z,1980
2022-12-11T09:28:48.085Z,1992
2022-12-11T09:29:40.459Z,1960
2022-12-11T09:30:40.870Z,2100
2022-12-11T09:31:40.666Z,2284
2022-12-11T09:32:40.378Z,2308
2022-12-11T09:33:40.386Z,2336
2022-12-11T09:34:40.368Z,2200
2022-12-11T09:35:40.348Z,2056
2022-12-11T09:36:40.583Z,2032
2022-12-11T09:37:40.544Z,2032
2022-12-11T09:38:40.022Z,1924
2022-12-11T09:39:40.245Z,1856
2022-12-11T09:40:40.243Z,1836
2022-12-11T09:41:40.572Z,1924
2022-12-11T09:42:40.170Z,2052
2022-12-11T09:43:40.182Z,2196
2022-12-11T09:44:39.874Z,2216
2022-12-11T09:45:39.857Z,2352
2022-12-11T09:46:41.924Z,2320
2022-12-11T09:47:40.073Z,2420
2022-12-11T09:48:39.804Z,2204
2022-12-11T09:49:39.763Z,2184
2022-12-11T09:50:40.002Z,2068
2022-12-11T09:51:39.859Z,2136
2022-12-11T09:52:39.972Z,2280
2022-12-11T09:53:41.454Z,2720
2022-12-11T09:54:39.658Z,2932
2022-12-11T09:55:39.908Z,2780
2022-12-11T09:56:39.888Z,2736
2022-12-11T09:57:40.338Z,3100
2022-12-11T09:58:39.835Z,3664
2022-12-11T09:59:39.563Z,3124
2022-12-11T10:00:39.794Z,3144
2022-12-11T10:01:39.840Z,3836
2022-12-11T10:02:39.503Z,4148
2022-12-11T10:03:39.991Z,3608
2022-12-11T10:04:39.975Z,3060
2022-12-11T10:05:39.943Z,3168
2022-12-11T10:06:39.412Z,3072
2022-12-11T10:07:39.133Z,2992
2022-12-11T10:08:39.371Z,3336
2022-12-11T10:09:39.858Z,3272
2022-12-11T10:10:39.580Z,2832
2022-12-11T10:11:39.851Z,2444
2022-12-11T10:12:39.541Z,2260
2022-12-11T10:13:39.897Z,2108
2022-12-11T10:14:39.504Z,2064
2022-12-11T10:15:39.914Z,2128
2022-12-11T10:16:39.814Z,2192
2022-12-11T10:17:39.679Z,2164
2022-12-11T10:18:39.153Z,2016
2022-12-11T10:19:39.146Z,2028
2022-12-11T10:20:39.483Z,2124
2022-12-11T10:21:39.093Z,2124
2022-12-11T10:22:38.814Z,2224
2022-12-11T10:23:39.564Z,2436
2022-12-11T10:25:28.951Z,2480
2022-12-11T10:25:40.056Z,2488
2022-12-11T10:26:40.035Z,2660
2022-12-11T10:27:39.766Z,2748
2022-12-11T10:28:40.037Z,2640
2022-12-11T10:29:40.332Z,2864
2022-12-11T10:30:41.483Z,3256
2022-12-11T10:31:39.886Z,3136
2022-12-11T10:32:39.913Z,2912
2022-12-11T10:33:40.156Z,3104
2022-12-11T10:34:39.608Z,3484
2022-12-11T10:35:40.099Z,3760
2022-12-11T10:36:39.837Z,3792
2022-12-11T10:37:39.296Z,3728
2022-12-11T10:38:39.525Z,3456
2022-12-11T10:39:39.511Z,3228
2022-12-11T10:40:39.481Z,3072
2022-12-11T10:41:39.976Z,3104
2022-12-11T10:42:45.753Z,3028
2022-12-11T10:43:39.174Z,3060
2022-12-11T10:44:39.659Z,3236
2022-12-11T10:45:39.989Z,3232
2022-12-11T10:46:39.798Z,3164
2022-12-11T10:47:39.864Z,2956
2022-12-11T10:48:45.502Z,2684
2022-12-11T10:49:39.545Z,2596
2022-12-11T10:50:40.034Z,2632
2022-12-11T10:51:39.779Z,2596
2022-12-11T10:52:39.477Z,2536
2022-12-11T10:53:39.959Z,2484
2022-12-11T10:54:39.692Z,2584
2022-12-11T10:55:39.940Z,2900
2022-12-11T10:56:39.644Z,3216
2022-12-11T10:57:39.891Z,3280
2022-12-11T10:58:39.344Z,3172
2022-12-11T10:59:39.333Z,2912
2022-12-11T11:00:39.586Z,2744
2022-12-11T11:01:40.215Z,2636
2022-12-11T11:02:39.819Z,2580
2022-12-11T11:03:39.758Z,2548
2022-12-11T11:04:39.223Z,2656
2022-12-11T11:05:39.468Z,2780
2022-12-11T11:06:39.439Z,2904
2022-12-11T11:07:39.702Z,2988
2022-12-11T11:08:39.189Z,3088
2022-12-11T11:09:39.636Z,3132
2022-12-11T11:10:39.351Z,3200
2022-12-11T11:11:40.945Z,3252
2022-12-11T11:12:39.048Z,3220
2022-12-11T11:13:39.581Z,3156
2022-12-11T11:14:39.272Z,3100
2022-12-11T11:15:39.328Z,3180
2022-12-11T11:16:38.791Z,3352
2022-12-11T11:17:57.889Z,3528
2022-12-11T11:18:39.452Z,3620
2022-12-11T11:19:38.912Z,3736
2022-12-11T11:20:39.140Z,3744
2022-12-11T11:21:39.116Z,3672
2022-12-11T11:22:39.349Z,3568
2022-12-11T11:23:50.596Z,3488
2022-12-11T11:24:38.804Z,3516
2022-12-11T11:25:39.284Z,3640
2022-12-11T11:27:19.008Z,3836
2022-12-11T11:27:38.994Z,3860
2022-12-11T11:28:38.966Z,3916
2022-12-11T11:29:38.721Z,3900
2022-12-11T11:30:38.930Z,3956
2022-12-11T11:31:39.191Z,3928
2022-12-11T11:32:38.892Z,3796
2022-12-11T11:33:39.197Z,3656
2022-12-11T11:34:38.837Z,3592
2022-12-11T11:35:45.562Z,3560
2022-12-11T11:36:38.897Z,3496
2022-12-11T11:37:39.044Z,3472
2022-12-11T11:38:38.773Z,3464
2022-12-11T11:39:38.732Z,3432
2022-12-11T11:40:38.197Z,3328
2022-12-11T11:41:38.679Z,3180
2022-12-11T11:42:38.413Z,3056
2022-12-11T11:43:38.643Z,3076
2022-12-11T11:44:38.895Z,3204
2022-12-11T11:45:38.620Z,3420
2022-12-11T11:46:39.101Z,3868
2022-12-11T11:47:38.556Z,4324
2022-12-11T11:48:38.545Z,4632
2022-12-11T11:49:38.908Z,4712
2022-12-11T11:50:38.507Z,4740
2022-12-11T11:51:38.468Z,4808
2022-12-11T11:52:38.781Z,4796
2022-12-11T11:53:38.450Z,4744
2022-12-11T11:54:38.417Z,4604
2022-12-11T11:55:38.671Z,4476
2022-12-11T11:56:38.401Z,4288
2022-12-11T11:57:38.099Z,4076
2022-12-11T11:58:38.391Z,3952
2022-12-11T11:59:38.317Z,3808
2022-12-11T12:00:40.981Z,3512
2022-12-11T12:01:38.271Z,3284
2022-12-11T12:02:38.451Z,3124
2022-12-11T12:03:38.225Z,3064
2022-12-11T12:04:37.956Z,3056
2022-12-11T12:05:38.527Z,3000
2022-12-11T12:06:38.154Z,3028
2022-12-11T12:07:38.412Z,3104
2022-12-11T12:08:38.125Z,3132
2022-12-11T12:09:37.876Z,3096
2022-12-11T12:10:38.125Z,3108
2022-12-11T12:11:38.087Z,3192
2022-12-11T12:12:41.202Z,3352
2022-12-11T12:13:55.983Z,3536
2022-12-11T12:15:07.726Z,3608
2022-12-11T12:15:37.963Z,3632
2022-12-11T12:17:08.175Z,3688
2022-12-11T12:17:37.853Z,3712
2022-12-11T12:18:37.649Z,3576
2022-12-11T12:19:38.148Z,3536
2022-12-11T12:20:37.877Z,3492
2022-12-11T12:21:38.215Z,3440
2022-12-11T12:22:37.836Z,3440
2022-12-11T12:23:43.615Z,3396
2022-12-11T12:24:37.278Z,3328
2022-12-11T12:25:37.509Z,3328
2022-12-11T12:26:37.481Z,3300
2022-12-11T12:27:59.345Z,3172
2022-12-11T12:28:37.692Z,3164
2022-12-11T12:29:37.170Z,3108
2022-12-11T12:30:37.423Z,2956
2022-12-11T12:31:37.972Z,2840
2022-12-11T12:32:37.888Z,2852
2022-12-11T12:33:37.340Z,2832
2022-12-11T12:34:37.612Z,2776
2022-12-11T12:35:37.806Z,2656
2022-12-11T12:36:37.529Z,2548
2022-12-11T12:37:37.896Z,2472
2022-12-11T12:38:37.501Z,2416
2022-12-11T12:39:37.731Z,2384
2022-12-11T12:40:37.453Z,2392
2022-12-11T12:41:37.170Z,2436
2022-12-11T12:42:37.410Z,2508
2022-12-11T12:43:37.757Z,2556
2022-12-11T12:44:37.365Z,2604
2022-12-11T12:45:37.894Z,2704
2022-12-11T12:46:37.322Z,2740
2022-12-11T12:47:37.300Z,2764
2022-12-11T12:48:37.281Z,2748
2022-12-11T12:49:37.527Z,2676
2022-12-11T12:50:37.229Z,2752
2022-12-11T12:51:37.218Z,2984
2022-12-11T12:52:37.243Z,2984
2022-12-11T12:53:37.598Z,2932
2022-12-11T12:54:37.159Z,2920
2022-12-11T12:55:37.132Z,2864
2022-12-11T12:56:37.114Z,2696
2022-12-11T12:57:37.102Z,2452
2022-12-11T12:58:36.805Z,2344
2022-12-11T12:59:37.043Z,2272
2022-12-11T13:00:37.178Z,2120
2022-12-11T13:01:37.336Z,1992
2022-12-11T13:02:37.174Z,1904
2022-12-11T13:03:36.699Z,1844
2022-12-11T13:05:01.885Z,1836
2022-12-11T13:05:36.922Z,1836
2022-12-11T13:06:36.911Z,1888
2022-12-11T13:07:37.452Z,1952
2022-12-11T13:08:37.126Z,1996
2022-12-11T13:09:37.212Z,2024
2022-12-11T13:10:36.809Z,2100
2022-12-11T13:11:37.063Z,2168
2022-12-11T13:12:36.774Z,2276
2022-12-11T13:13:36.506Z,2420
2022-12-11T13:14:36.757Z,2496
2022-12-11T13:15:36.965Z,2536
2022-12-11T13:16:37.350Z,2536
2022-12-11T13:17:36.674Z,2496
2022-12-11T13:18:36.393Z,2404
2022-12-11T13:19:43.058Z,2272
2022-12-11T13:20:36.593Z,2176
2022-12-11T13:21:36.567Z,2100
2022-12-11T13:22:36.565Z,2044
2022-12-11T13:23:36.531Z,2024
2022-12-11T13:24:36.529Z,2016
2022-12-11T13:25:43.957Z,1988
2022-12-11T13:26:36.463Z,1948
2022-12-11T13:27:35.939Z,1896
2022-12-11T13:28:36.712Z,1864
2022-12-11T13:29:36.666Z,1852
2022-12-11T13:30:36.388Z,1832
2022-12-11T13:31:36.601Z,1836
2022-12-11T13:32:36.339Z,1824
2022-12-11T13:33:36.308Z,1812
2022-12-11T13:34:35.803Z,1792
2022-12-11T13:35:36.282Z,1756
2022-12-11T13:36:36.500Z,1704
2022-12-11T13:37:36.221Z,1648
2022-12-11T13:38:36.208Z,1588
2022-12-11T13:39:36.201Z,1536
2022-12-11T13:40:35.905Z,1476
2022-12-11T13:41:36.566Z,1428
2022-12-11T13:42:36.371Z,1404
2022-12-11T13:43:36.103Z,1396
2022-12-11T13:44:35.821Z,1396
2022-12-11T13:45:36.255Z,1388
2022-12-11T13:46:35.784Z,1384
2022-12-11T13:47:35.747Z,1384
2022-12-11T13:48:35.983Z,1372
2022-12-11T13:49:35.968Z,1324
2022-12-11T13:50:36.215Z,1284
2022-12-11T13:51:35.692Z,1248
2022-12-11T13:52:36.172Z,1228
2022-12-11T13:53:35.620Z,1232
2022-12-11T13:54:35.884Z,1184
2022-12-11T13:55:35.874Z,1120
2022-12-11T13:56:35.814Z,1084
2022-12-11T13:57:36.153Z,1088
2022-12-11T13:58:35.796Z,1084
2022-12-11T13:59:35.749Z,1048
2022-12-11T14:00:35.982Z,1000
2022-12-11T14:01:35.684Z,940
2022-12-11T14:02:35.951Z,900
2022-12-11T14:03:35.661Z,848
2022-12-11T14:04:35.662Z,788
2022-12-11T14:05:35.881Z,720
2022-12-11T14:06:35.599Z,648
2022-12-11T14:07:35.572Z,628
2022-12-11T14:08:35.535Z,664
2022-12-11T14:09:35.290Z,712
2022-12-11T14:10:35.301Z,732
2022-12-11T14:11:35.493Z,724
2022-12-11T14:12:35.465Z,688
2022-12-11T14:13:41.779Z,660
2022-12-11T14:14:35.698Z,648
2022-12-11T14:15:35.400Z,636
2022-12-11T14:16:35.432Z,612
2022-12-11T14:17:34.850Z,596
2022-12-11T14:18:34.828Z,604